Time;durP1;ratioP1;P1;durP2;ratioP2;P2;SDS_P1;SDS_P2;PMS_P1;PMS_P2;Temp;Humidity;BMP_temperature;BMP_pressure;BME280_temperature;BME280_humidity;BME280_pressure;Samples;Min_cycle;Max_cycle;Signal;HPM_P1;HPM_P2
2021/12/02 00:02:33;;;;;;;11.90;1.40;;;;;;;0.16;100.00;99106.56;10197732;29;20189;-90
2021/12/02 00:07:34;;;;;;;11.97;1.23;;;;;;;-1.50;100.00;99025.50;10212013;29;20098;-91
2021/12/02 00:12:34;;;;;;;7.82;1.33;;;;;;;-1.64;100.00;98856.69;10195881;29;20038;-91
2021/12/02 00:17:39;;;;;;;7.50;2.10;;;;;;;2.60;100.00;99447.44;10195377;29;20071;-90
2021/12/02 00:23:18;;;;;;;6.47;1.25;;;;;;;-1.33;100.00;98830.56;10196300;29;20086;-90
2021/12/02 00:28:19;;;;;;;5.22;1.17;;;;;;;-3.29;100.00;98750.09;10228926;29;20495;-90
2021/12/02 00:33:19;;;;;;;12.93;2.30;;;;;;;-3.55;100.00;98587.84;10211561;29;20035;-90
2021/12/02 00:38:21;;;;;;;9.57;1.50;;;;;;;-1.00;100.00;98985.97;10210044;29;20051;-90
2021/12/02 00:43:22;;;;;;;4.32;0.80;;;;;;;-1.61;100.00;99088.31;10225403;28;20058;-91
2021/12/02 00:48:22;;;;;;;7.53;1.30;;;;;;;1.28;100.00;99308.31;10194119;29;20481;-90
2021/12/02 00:53:23;;;;;;;8.07;2.22;;;;;;;-1.39;100.00;98835.00;10209850;29;20050;-89
2021/12/02 00:58:24;;;;;;;7.03;0.90;;;;;;;-1.32;100.00;99021.22;10197006;29;20047;-90
2021/12/02 01:03:34;;;;;;;9.57;1.00;;;;;;;-0.02;100.00;99231.88;10194954;29;20062;-89
2021/12/02 01:08:35;;;;;;;6.83;0.80;;;;;;;-1.47;100.00;98994.53;10196153;29;20130;-89
2021/12/02 01:13:36;;;;;;;3.92;0.75;;;;;;;-1.00;100.00;99148.03;10209979;29;20038;-89
2021/12/02 01:18:37;;;;;;;9.15;1.73;;;;;;;-2.05;100.00;98955.19;10209399;29;20489;-90
2021/12/02 01:23:37;;;;;;;16.57;1.67;;;;;;;-4.13;100.00;98692.84;10194314;29;20476;-90
2021/12/02 01:28:38;;;;;;;10.85;0.85;;;;;;;-3.93;100.00;98741.94;10209307;29;20038;-90
2021/12/02 01:33:39;;;;;;;4.72;1.13;;;;;;;0.04;100.00;99351.91;10225488;29;20467;-89
2021/12/02 01:38:40;;;;;;;4.07;0.80;;;;;;;-0.53;100.00;99199.78;10209205;29;20047;-89
2021/12/02 01:43:52;;;;;;;11.93;2.00;;;;;;;-0.76;100.00;99184.19;10192984;29;20051;-89
2021/12/02 01:49:03;;;;;;;10.30;1.20;;;;;;;-2.76;100.00;98808.16;10224227;29;20150;-90
2021/12/02 01:54:07;;;;;;;7.55;0.90;;;;;;;-3.05;100.00;98865.06;10223492;28;20102;-89
2021/12/02 01:59:13;;;;;;;7.55;1.30;;;;;;;-0.06;100.00;99181.16;10208843;29;20050;-89
2021/12/02 02:04:14;;;;;;;3.95;0.90;;;;;;;-4.35;100.00;98678.84;10224201;29;20126;-89
2021/12/02 02:09:15;;;;;;;7.87;1.13;;;;;;;2.18;100.00;99662.88;10224251;29;20034;-89
2021/12/02 02:14:16;;;;;;;8.93;1.55;;;;;;;-2.95;100.00;98845.75;10239297;29;20050;-89
2021/12/02 02:19:17;;;;;;;9.03;1.57;;;;;;;-1.57;100.00;99019.34;10207335;29;20081;-89
2021/12/02 02:24:17;;;;;;;8.68;0.95;;;;;;;-1.83;100.00;99026.59;10207935;29;20082;-89
2021/12/02 02:29:18;;;;;;;4.30;0.70;;;;;;;-3.12;100.00;98888.53;10207145;29;20082;-89
2021/12/02 02:34:23;;;;;;;7.10;0.77;;;;;;;-1.98;100.00;98925.50;10206793;29;20101;-89
2021/12/02 02:39:25;;;;;;;4.13;0.70;;;;;;;-1.61;100.00;99082.91;10223137;29;20063;-89
2021/12/02 02:44:26;;;;;;;4.77;1.10;;;;;;;-1.52;100.00;99076.19;10204331;29;20507;-89
2021/12/02 02:49:27;;;;;;;4.57;1.17;;;;;;;0.42;100.00;99425.91;10206476;29;20488;-89
2021/12/02 02:54:28;;;;;;;7.27;0.80;;;;;;;0.20;100.00;99435.22;10206373;29;20035;-88
2021/12/02 02:59:56;;;;;;;4.25;1.02;;;;;;;-0.71;100.00;99214.06;10206003;29;20027;-89
2021/12/02 03:20:46;;;;;;;8.10;1.42;;;;;;;-6.14;100.00;98476.91;10224052;29;20051;-91
2021/12/02 03:25:49;;;;;;;1.95;0.57;;;;;;;-2.80;100.00;99050.13;10238046;29;20414;-88
2021/12/02 03:30:50;;;;;;;3.50;0.87;;;;;;;-4.50;100.00;98762.34;10205869;29;20035;-89
2021/12/02 03:35:50;;;;;;;2.33;0.33;;;;;;;-1.50;100.00;99389.06;10206291;29;20049;-89
2021/12/02 03:40:51;;;;;;;1.37;0.27;;;;;;;-3.62;100.00;99067.66;10237687;29;20476;-89
2021/12/02 03:45:52;;;;;;;3.40;0.30;;;;;;;-5.96;100.00;98607.56;10190499;29;20050;-89
2021/12/02 03:50:52;;;;;;;3.93;0.67;;;;;;;-0.47;100.00;99694.47;10190599;29;20035;-89
2021/12/02 03:55:53;;;;;;;4.97;0.57;;;;;;;-1.61;100.00;99304.19;10190065;29;20114;-89
2021/12/02 04:00:53;;;;;;;5.68;0.90;;;;;;;-4.69;100.00;98868.75;10205493;29;20103;-89
2021/12/02 04:05:54;;;;;;;6.80;1.20;;;;;;;-4.24;100.00;98941.47;10189548;29;20047;-89
2021/12/02 04:10:59;;;;;;;8.90;1.93;;;;;;;-2.78;100.00;99179.22;10206042;29;20543;-89
2021/12/02 04:16:02;;;;;;;12.43;1.83;;;;;;;-4.23;100.00;98819.56;10190737;28;20066;-89
2021/12/02 04:21:02;;;;;;;8.47;1.20;;;;;;;-3.59;100.00;99143.38;10212907;29;20043;-89
2021/12/02 04:26:03;;;;;;;6.30;1.40;;;;;;;-3.49;100.00;98958.19;10196426;29;20153;-89
2021/12/02 04:31:04;;;;;;;6.57;1.57;;;;;;;-3.48;100.00;99104.28;10197181;29;20051;-89
2021/12/02 04:36:16;;;;;;;;;;;;;;;;;;;;;
2021/12/02 04:41:18;;;;;;;4.00;1.40;;;;;;;-2.35;100.00;99346.66;10230617;29;20073;-90
2021/12/02 04:46:19;;;;;;;4.45;0.90;;;;;;;-3.08;100.00;99056.66;10196849;29;20043;-89
2021/12/02 04:51:22;;;;;;;2.07;0.60;;;;;;;-3.37;100.00;99035.56;10212315;29;20046;-88
2021/12/02 04:56:22;;;;;;;5.18;0.50;;;;;;;-1.80;100.00;99475.03;10211908;29;20065;-92
2021/12/02 05:01:28;;;;;;;2.50;0.40;;;;;;;-3.97;100.00;99278.34;10227647;29;20493;-91
2021/12/02 05:06:28;;;;;;;1.00;0.40;;;;;;;-2.17;100.00;99556.34;10194951;29;20144;-89
2021/12/02 05:11:29;;;;;;;1.20;0.40;;;;;;;-1.33;100.00;99484.72;10194939;29;20114;-90
2021/12/02 05:16:29;;;;;;;5.07;0.60;;;;;;;-4.19;100.00;99139.72;10194588;29;20125;-89
2021/12/02 05:21:30;;;;;;;3.27;0.60;;;;;;;-0.04;100.00;99915.81;10194736;29;20424;-90
2021/12/02 05:26:30;;;;;;;3.38;0.50;;;;;;;-2.51;100.00;99347.06;10194403;29;20066;-90
2021/12/02 05:31:31;;;;;;;2.13;1.00;;;;;;;-1.26;100.00;99500.91;10194080;29;20138;-90
2021/12/02 05:36:32;;;;;;;6.47;0.83;;;;;;;-4.40;100.00;99084.25;10192772;29;20106;-90
2021/12/02 05:41:32;;;;;;;2.67;0.60;;;;;;;-3.86;100.00;99146.03;10193023;29;20075;-90
2021/12/02 05:46:33;;;;;;;1.77;0.40;;;;;;;-4.06;100.00;99185.47;10209739;29;20506;-90
2021/12/02 05:51:34;;;;;;;2.17;0.50;;;;;;;-3.25;100.00;99367.63;10193142;29;20035;-90
2021/12/02 05:56:34;;;;;;;2.00;1.33;;;;;;;-4.89;100.00;98970.69;10208530;29;20046;-91
2021/12/02 06:01:37;;;;;;;1.73;0.70;;;;;;;-2.74;100.00;99584.50;10193329;29;20139;-91
2021/12/02 06:06:37;;;;;;;2.60;0.60;;;;;;;-0.15;100.00;100031.94;10193055;29;20041;-91
2021/12/02 06:11:38;;;;;;;0.87;0.53;;;;;;;-6.65;100.00;98908.34;10192806;29;20468;-91
2021/12/02 06:16:39;;;;;;;1.77;0.93;;;;;;;-5.50;100.00;98972.28;10193092;29;20039;-91
2021/12/02 06:21:39;;;;;;;4.17;1.30;;;;;;;-6.38;100.00;98963.78;10192202;29;20035;-91
2021/12/02 06:27:01;;;;;;;9.17;1.63;;;;;;;-5.49;100.00;99064.25;10191751;29;20043;-92
2021/12/02 06:32:18;;;;;;;4.47;1.87;;;;;;;-4.68;100.00;99153.13;10217592;29;20408;-91
2021/12/02 06:37:19;;;;;;;4.43;1.50;;;;;;;-6.18;100.00;98997.94;10190417;29;20051;-91
2021/12/02 06:42:19;;;;;;;2.10;1.00;;;;;;;-4.76;100.00;99273.28;10205347;29;20203;-89
2021/12/02 06:47:24;;;;;;;3.27;1.83;;;;;;;-1.45;100.00;99657.31;10189834;29;20071;-89
2021/12/02 06:52:27;;;;;;;2.93;1.63;;;;;;;-1.95;100.00;99546.19;10190381;29;20045;-90
2021/12/02 06:57:27;;;;;;;4.07;1.80;;;;;;;-2.55;100.00;99453.59;10205827;29;20064;-89
2021/12/02 07:02:29;;;;;;;4.57;2.00;;;;;;;-4.68;100.00;99351.81;10189076;29;20161;-89
2021/12/02 07:07:34;;;;;;;8.60;2.83;;;;;;;-2.62;100.00;99534.41;10205191;29;20041;-89
2021/12/02 07:12:36;;;;;;;8.07;3.77;;;;;;;-3.60;100.00;99354.22;10205478;29;20377;-88
2021/12/02 07:17:37;;;;;;;10.30;4.73;;;;;;;-4.75;100.00;99141.53;10189350;29;20031;-89
2021/12/02 07:22:37;;;;;;;8.43;4.60;;;;;;;-0.36;100.00;99906.63;10188943;29;20133;-89
2021/12/02 07:27:38;;;;;;;9.67;4.07;;;;;;;-3.47;100.00;99418.88;10204400;29;20035;-90
2021/12/02 07:32:40;;;;;;;6.73;3.30;;;;;;;-4.93;100.00;99307.63;10205130;29;20054;-91
2021/12/02 07:37:45;;;;;;;16.03;5.47;;;;;;;-4.94;100.00;99314.84;10192357;29;20047;-91
2021/12/02 07:42:46;;;;;;;17.10;5.37;;;;;;;-4.94;100.00;99148.44;10205077;29;20184;-89
2021/12/02 07:47:46;;;;;;;12.03;4.27;;;;;;;-2.32;100.00;99524.13;10204638;29;20049;-91
2021/12/02 07:52:58;;;;;;;8.53;4.10;;;;;;;-4.58;100.00;99374.84;10191053;28;20042;-91
2021/12/02 07:57:58;;;;;;;6.03;3.67;;;;;;;-4.39;100.00;99306.19;10214067;29;20034;-91
2021/12/02 08:02:59;;;;;;;5.77;2.43;;;;;;;-5.69;100.00;99318.75;10212733;29;20038;-91
2021/12/02 08:08:00;;;;;;;4.13;2.10;;;;;;;-3.41;100.00;99503.34;10211881;29;20381;-90
2021/12/02 08:13:03;;;;;;;6.37;2.27;;;;;;;-4.80;100.00;99302.34;10196333;29;20130;-90
2021/12/02 08:18:03;;;;;;;7.80;2.40;;;;;;;-8.58;100.00;98869.31;10196252;29;20535;-90
2021/12/02 08:23:04;;;;;;;8.57;1.83;;;;;;;-3.52;100.00;99410.53;10195637;29;20098;-90
2021/12/02 08:28:04;;;;;;;4.40;2.17;;;;;;;-0.76;100.00;100033.59;10211710;29;20027;-90
2021/12/02 08:33:07;;;;;;;7.17;2.53;;;;;;;-2.81;100.00;99708.38;10210756;29;20081;-90
2021/12/02 08:38:11;;;;;;;3.67;1.87;;;;;;;-5.79;100.00;99213.69;10195170;29;20039;-90
2021/12/02 08:43:13;;;;;;;3.87;1.80;;;;;;;-0.59;100.00;99889.97;10196715;29;20142;-90
2021/12/02 08:54:30;;;;;;;6.73;1.90;;;;;;;-3.12;100.00;99732.97;10260339;29;20027;-88
2021/12/02 08:59:31;;;;;;;3.70;1.80;;;;;;;-2.19;100.00;99636.59;10208962;29;20067;-88
2021/12/02 09:04:31;;;;;;;4.67;2.50;;;;;;;-2.77;100.00;99673.78;10208097;28;20349;-89
2021/12/02 09:09:32;;;;;;;6.17;2.10;;;;;;;-3.52;100.00;99442.84;10193216;29;20114;-88
2021/12/02 09:14:33;;;;;;;7.93;2.53;;;;;;;-3.19;100.00;99487.94;10192910;29;20039;-88
2021/12/02 09:19:33;;;;;;;5.93;3.03;;;;;;;-4.35;100.00;99297.53;10192591;29;20039;-88
2021/12/02 09:24:34;;;;;;;6.50;3.10;;;;;;;-1.08;100.00;99929.72;10208766;29;20118;-88
2021/12/02 09:29:34;;;;;;;6.87;2.40;;;;;;;-6.02;100.00;98924.50;10193032;29;20105;-89
2021/12/02 09:34:37;;;;;;;6.27;3.13;;;;;;;-2.39;100.00;99484.72;10192643;29;20043;-88
2021/12/02 09:39:38;;;;;;;6.93;3.07;;;;;;;-1.58;100.00;99615.97;10207459;29;20067;-89
2021/12/02 09:44:39;;;;;;;6.07;4.33;;;;;;;-3.76;100.00;99276.56;10207174;29;20078;-89
2021/12/02 09:49:39;;;;;;;7.30;3.20;;;;;;;1.56;100.00;100174.88;10192631;29;20408;-89
2021/12/02 10:05:00;;;;;;;4.83;2.03;;;;;;;-4.41;100.00;99392.34;10223554;29;20039;-87
2021/12/02 10:10:11;;;;;;;4.47;1.43;;;;;;;-3.04;100.00;99455.50;10211485;29;20031;-88
2021/12/02 10:15:14;;;;;;;3.53;1.15;;;;;;;1.14;100.00;100259.19;10206943;28;20043;-88
2021/12/02 10:20:50;;;;;;;4.22;1.30;;;;;;;1.09;100.00;100071.91;10211862;29;20043;-88
2021/12/02 10:25:58;;;;;;;2.93;1.00;;;;;;;1.06;100.00;100071.53;10210290;29;20033;-87
2021/12/02 10:31:00;;;;;;;3.87;1.43;;;;;;;-4.76;100.00;99314.38;10221334;29;20031;-86
2021/12/02 10:36:03;;;;;;;2.37;0.87;;;;;;;-3.17;100.00;99639.31;10190098;29;20047;-86
2021/12/02 10:41:07;;;;;;;3.33;0.98;;;;;;;-3.62;100.00;99549.94;10204761;29;20062;-86
2021/12/02 10:46:15;;;;;;;1.73;0.80;;;;;;;-1.83;100.00;99852.09;10190716;29;20137;-86
2021/12/02 10:51:36;;;;;;;3.47;1.37;;;;;;;1.28;100.00;100101.91;10220603;29;20085;-88
2021/12/02 10:56:37;;;;;;;2.33;1.30;;;;;;;-0.89;100.00;99976.78;10204737;29;20480;-89
2021/12/02 11:01:38;;;;;;;2.20;1.40;;;;;;;-2.84;100.00;99514.84;10189009;29;20048;-88
2021/12/02 11:06:43;;;;;;;2.73;1.00;;;;;;;-2.24;100.00;99580.56;10189686;29;20038;-86
2021/12/02 11:11:43;;;;;;;3.77;1.07;;;;;;;0.57;100.00;100068.22;10203948;29;20043;-88
2021/12/02 11:16:44;;;;;;;5.45;0.77;;;;;;;-3.01;100.00;99573.59;10198935;28;20576;-88
2021/12/02 11:21:44;;;;;;;2.60;1.07;;;;;;;-5.62;100.00;98901.47;10221407;28;20051;-84
2021/12/02 11:26:45;;;;;;;0.93;0.50;;;;;;;-4.30;100.00;99254.81;10217411;28;20050;-89
2021/12/02 11:31:45;;;;;;;0.57;0.20;;;;;;;-2.78;100.00;99756.47;10218683;29;20098;-89
2021/12/02 11:36:46;;;;;;;0.63;0.23;;;;;;;-2.77;100.00;99882.06;10219398;29;20074;-89
2021/12/02 11:41:47;;;;;;;0.77;0.30;;;;;;;-4.27;100.00;99436.28;10203772;28;20208;-87
2021/12/02 11:46:47;;;;;;;0.60;0.30;;;;;;;-4.83;100.00;99458.47;10219546;29;20104;-86
2021/12/02 11:51:48;;;;;;;1.13;0.40;;;;;;;-4.19;100.00;99435.34;10218989;29;20027;-87
2021/12/02 11:56:48;;;;;;;2.60;0.40;;;;;;;-3.12;100.00;99693.44;10219240;29;20043;-87
2021/12/02 12:01:56;;;;;;;1.27;0.40;;;;;;;0.23;100.00;100232.53;10202912;29;20082;-87
2021/12/02 12:07:14;;;;;;;1.80;0.50;;;;;;;-3.08;100.00;99788.94;10203903;29;20176;-89
2021/12/02 12:12:15;;;;;;;3.05;0.50;;;;;;;-4.82;100.00;99511.13;10203623;29;20031;-89
2021/12/02 12:17:17;;;;;;;4.53;1.42;;;;;;;-4.20;100.00;99557.28;10204438;29;20498;-95
2021/12/02 12:22:29;;;;;;;2.63;1.10;;;;;;;-3.27;100.00;99754.56;10221953;29;20043;-95
2021/12/02 12:27:35;;;;;;;2.63;1.30;;;;;;;-3.63;100.00;99725.84;10208021;29;20041;-96
2021/12/02 12:33:05;;;;;;;0.80;0.60;;;;;;;-5.40;100.00;99469.91;10206245;29;20067;-94
2021/12/02 12:38:22;;;;;;;1.30;0.50;;;;;;;-3.77;100.00;99646.84;10214913;28;20046;-96
2021/12/02 12:43:25;;;;;;;2.57;0.80;;;;;;;0.41;100.00;100459.44;10200375;29;20051;-96
2021/12/02 12:48:28;;;;;;;1.07;0.50;;;;;;;-2.90;100.00;99890.00;10212312;29;20039;-95
2021/12/02 12:53:31;;;;;;;0.70;0.33;;;;;;;0.53;100.00;100229.50;10199802;29;20086;-95
2021/12/02 12:58:37;;;;;;;1.37;0.30;;;;;;;-2.69;100.00;99973.53;10225361;29;20077;-88
2021/12/02 13:03:43;;;;;;;3.67;0.50;;;;;;;-1.45;100.00;100134.31;10210134;29;20046;-88
2021/12/02 13:08:53;;;;;;;1.17;0.50;;;;;;;0.85;100.00;100634.41;10209617;29;20168;-89
2021/12/02 13:13:55;;;;;;;3.33;1.50;;;;;;;-3.68;100.00;99459.28;10209170;29;20039;-88
2021/12/02 13:18:59;;;;;;;2.43;1.40;;;;;;;2.65;100.00;100270.97;10224050;29;20046;-88
2021/12/02 13:24:04;;;;;;;0.77;0.45;;;;;;;3.41;100.00;100274.63;10240495;29;20119;-89
2021/12/02 13:29:12;;;;;;;1.42;0.50;;;;;;;0.66;100.00;100011.97;10224586;29;20035;-88
2021/12/02 13:34:13;;;;;;;0.98;0.60;;;;;;;-2.95;100.00;99520.81;10223465;29;20055;-89
2021/12/02 13:39:27;;;;;;;4.97;0.73;;;;;;;-0.05;100.00;100255.06;10208179;29;20062;-90
2021/12/02 13:44:39;;;;;;;3.70;1.03;;;;;;;1.04;100.00;100290.47;10210982;29;20094;-89
2021/12/02 13:49:44;;;;;;;5.20;0.80;;;;;;;-5.85;100.00;99276.09;10222042;28;20050;-89
2021/12/02 13:55:08;;;;;;;3.78;0.70;;;;;;;-4.74;100.00;99744.63;10223603;29;20543;-89
2021/12/02 14:00:15;;;;;;;0.93;0.30;;;;;;;-2.38;100.00;99993.97;10194261;29;20531;-88
2021/12/02 14:05:18;;;;;;;1.00;0.47;;;;;;;0.40;100.00;100577.75;10223107;29;20137;-86
2021/12/02 14:10:23;;;;;;;1.83;0.90;;;;;;;-1.49;100.00;100160.88;10222249;29;20535;-88
2021/12/02 14:15:25;;;;;;;2.07;1.20;;;;;;;-3.93;100.00;99628.28;10221724;29;20067;-88
2021/12/02 14:20:40;;;;;;;2.30;0.87;;;;;;;-1.60;100.00;100088.50;10206135;29;20036;-88
2021/12/02 14:25:42;;;;;;;3.07;1.03;;;;;;;-2.60;100.00;100054.25;10206776;29;20480;-88
2021/12/02 14:30:44;;;;;;;3.50;1.27;;;;;;;-6.40;100.00;99359.44;10205508;29;20047;-87
2021/12/02 14:36:23;;;;;;;4.80;1.90;;;;;;;0.18;100.00;100363.06;10222341;29;20047;-88
2021/12/02 14:41:28;;;;;;;3.77;2.63;;;;;;;-6.50;100.00;99436.50;10221424;28;20115;-88
2021/12/02 14:46:39;;;;;;;4.10;2.80;;;;;;;-0.04;100.00;100391.25;10205887;29;20043;-89
2021/12/02 14:51:56;;;;;;;5.80;2.60;;;;;;;-6.73;100.00;99517.63;10237823;29;20110;-89
2021/12/02 14:56:57;;;;;;;2.77;2.20;;;;;;;-2.43;100.00;100292.91;10221307;29;20176;-89
2021/12/02 15:02:09;;;;;;;4.03;2.47;;;;;;;-4.88;100.00;99769.59;10220650;28;20128;-90
2021/12/02 15:07:11;;;;;;;3.13;2.47;;;;;;;-4.07;100.00;100041.31;10206399;29;20031;-88
2021/12/02 15:12:39;;;;;;;6.50;3.40;;;;;;;-7.53;100.00;99660.28;10220195;29;20031;-88
2021/12/02 15:17:48;;;;;;;4.33;2.70;;;;;;;-4.35;100.00;100055.25;10205398;29;20174;-87
2021/12/02 15:22:56;;;;;;;7.30;3.30;;;;;;;-0.83;100.00;100435.41;10204784;29;20038;-89
2021/12/02 15:27:56;;;;;;;5.97;4.10;;;;;;;-4.03;100.00;99923.47;10221135;29;20050;-89
2021/12/02 15:32:57;;;;;;;9.47;3.77;;;;;;;-3.07;100.00;100280.66;10235978;29;20043;-89
2021/12/02 15:37:57;;;;;;;8.57;4.90;;;;;;;-6.71;100.00;99723.56;10204182;29;20130;-88
2021/12/02 15:43:11;;;;;;;10.20;5.17;;;;;;;-6.25;100.00;99852.31;10219927;28;20087;-88
2021/12/02 15:48:12;;;;;;;12.50;5.27;;;;;;;-7.52;100.00;99543.53;10205853;29;20538;-89
2021/12/02 15:53:14;;;;;;;10.40;6.00;;;;;;;-3.97;100.00;100261.53;10220951;29;20035;-88
2021/12/02 15:58:15;;;;;;;12.80;7.03;;;;;;;-6.10;100.00;99804.22;10204166;29;20118;-88
2021/12/02 16:03:39;;;;;;;19.33;10.57;;;;;;;-4.70;100.00;100072.75;10204594;29;20052;-88
2021/12/02 16:08:48;;;;;;;22.43;11.10;;;;;;;-2.63;100.00;100475.84;10199325;28;20121;-88
2021/12/02 16:13:51;;;;;;;13.97;7.37;;;;;;;-4.78;100.00;100143.41;10222873;28;20042;-88
2021/12/02 16:18:52;;;;;;;14.97;7.33;;;;;;;-4.90;100.00;100107.22;10227772;28;20049;-88
2021/12/02 16:23:52;;;;;;;9.90;5.37;;;;;;;-4.51;100.00;100069.59;10245377;28;20178;-88
2021/12/02 16:29:08;;;;;;;8.60;5.40;;;;;;;-6.64;100.00;99787.94;10208879;28;20159;-87
2021/12/02 16:34:09;;;;;;;9.00;5.20;;;;;;;-7.79;100.00;99596.31;10228575;28;20047;-87
2021/12/02 16:39:43;;;;;;;12.53;5.80;;;;;;;-5.29;100.00;100124.09;10208176;28;20515;-87
2021/12/02 16:44:43;;;;;;;7.57;4.30;;;;;;;-5.50;100.00;100028.91;10199790;28;20058;-91
2021/12/02 16:49:44;;;;;;;6.37;4.13;;;;;;;-5.66;100.00;99918.97;10223892;28;20118;-87
2021/12/02 16:54:45;;;;;;;10.20;5.60;;;;;;;-4.66;100.00;100117.03;10225881;28;20243;-88
2021/12/02 16:59:46;;;;;;;11.23;4.97;;;;;;;-2.11;100.00;100626.19;10229157;28;20170;-87
2021/12/02 17:04:47;;;;;;;10.87;6.13;;;;;;;-3.05;100.00;100380.97;10205037;28;20125;-87
2021/12/02 17:09:50;;;;;;;15.17;7.37;;;;;;;-5.41;100.00;99897.44;10225652;28;20027;-87
2021/12/02 17:14:51;;;;;;;11.63;6.50;;;;;;;-5.73;100.00;99968.94;10218858;28;20424;-88
2021/12/02 17:19:52;;;;;;;12.23;6.50;;;;;;;-2.95;100.00;100555.00;10222898;28;20042;-88
2021/12/02 17:24:52;;;;;;;9.03;5.00;;;;;;;-5.95;100.00;99856.09;10254469;28;20074;-87
2021/12/02 17:29:53;;;;;;;10.70;5.97;;;;;;;-2.53;100.00;100623.88;10207377;29;20036;-87
2021/12/02 17:34:53;;;;;;;13.97;5.53;;;;;;;-4.83;100.00;100144.97;10223024;29;20062;-87
2021/12/02 17:39:55;;;;;;;9.73;5.83;;;;;;;-5.42;100.00;100067.44;10207077;29;20067;-88
2021/12/02 17:44:55;;;;;;;11.13;6.07;;;;;;;-4.10;100.00;100509.44;10224112;29;20054;-88
2021/12/02 17:49:56;;;;;;;12.83;6.90;;;;;;;-4.77;100.00;100212.25;10223501;29;20416;-88
2021/12/02 17:54:58;;;;;;;10.73;7.27;;;;;;;-6.14;100.00;100027.94;10254107;29;20062;-87
2021/12/02 17:59:59;;;;;;;10.00;6.93;;;;;;;-5.25;100.00;100230.09;10206744;29;20051;-87
2021/12/02 18:05:03;;;;;;;14.90;7.30;;;;;;;-4.66;100.00;100193.06;10221945;29;20071;-88
2021/12/02 18:10:08;;;;;;;10.93;6.70;;;;;;;-6.92;100.00;99909.56;10209092;29;20027;-89
2021/12/02 18:15:09;;;;;;;12.53;6.97;;;;;;;-6.06;100.00;100027.94;10223526;29;20369;-90
2021/12/02 18:20:10;;;;;;;9.70;5.57;;;;;;;-7.79;100.00;99795.88;10223964;29;20031;-89
2021/12/02 18:25:10;;;;;;;12.63;5.00;;;;;;;-5.48;100.00;100133.31;10209951;28;20035;-89
2021/12/02 18:30:33;;;;;;;8.77;4.70;;;;;;;-4.47;100.00;100417.53;10250686;28;20114;-88
2021/12/02 18:35:36;;;;;;;9.97;5.13;;;;;;;-4.17;100.00;100253.91;10252291;28;20035;-90
2021/12/02 18:40:39;;;;;;;10.33;6.30;;;;;;;-5.75;100.00;100180.91;10258995;28;20555;-89
2021/12/02 18:45:40;;;;;;;19.23;8.13;;;;;;;-6.53;100.00;100122.28;10231761;29;20489;-89
2021/12/02 18:50:43;;;;;;;17.03;8.63;;;;;;;-5.41;100.00;100150.44;10221768;29;20039;-90
2021/12/02 18:55:43;;;;;;;12.47;7.23;;;;;;;-5.82;100.00;100227.31;10237401;29;20042;-89
2021/12/02 19:00:44;;;;;;;11.07;5.80;;;;;;;-5.14;100.00;100258.44;10252776;29;20077;-89
2021/12/02 19:05:51;;;;;;;10.70;5.07;;;;;;;-4.40;100.00;100392.66;10236685;29;20035;-88
2021/12/02 19:26:48;;;;;;;13.40;3.67;;;;;;;-5.32;100.00;100152.09;10235445;29;20046;-87
2021/12/02 19:31:50;;;;;;;7.07;3.97;;;;;;;-4.53;100.00;100175.56;10251430;29;20410;-87
2021/12/02 19:36:51;;;;;;;7.17;4.23;;;;;;;-3.95;100.00;100443.22;10235437;29;20042;-88
2021/12/02 19:41:51;;;;;;;5.47;3.27;;;;;;;-3.60;100.00;100386.47;10234674;28;20047;-86
2021/12/02 19:46:52;;;;;;;8.10;4.30;;;;;;;-4.11;100.00;100357.22;10251068;28;20118;-86
2021/12/02 19:51:52;;;;;;;11.30;5.97;;;;;;;-4.13;100.00;100467.59;10226962;29;20488;-86
2021/12/02 19:56:53;;;;;;;8.17;5.17;;;;;;;-3.22;100.00;100543.63;10226545;29;20035;-86
2021/12/02 20:01:54;;;;;;;7.50;5.03;;;;;;;-4.38;100.00;100394.19;10226823;29;20043;-86
2021/12/02 20:06:54;;;;;;;9.63;4.07;;;;;;;-4.01;100.00;100281.72;10258207;29;20035;-86
2021/12/02 20:11:55;;;;;;;13.47;4.77;;;;;;;-3.46;100.00;100383.88;10210506;29;20039;-85
2021/12/02 20:16:59;;;;;;;8.93;4.43;;;;;;;-1.36;100.00;100743.47;10242005;29;20091;-86
2021/12/02 20:22:02;;;;;;;6.23;3.83;;;;;;;-2.96;100.00;100573.00;10257414;28;20027;-85
2021/12/02 20:27:03;;;;;;;6.33;3.40;;;;;;;-2.65;100.00;100643.13;10257308;29;20061;-85
2021/12/02 20:32:04;;;;;;;6.13;3.20;;;;;;;-2.87;100.00;100603.47;10241099;29;20106;-85
2021/12/02 20:37:06;;;;;;;10.03;4.23;;;;;;;-3.17;100.00;100613.94;10225567;29;20055;-85
2021/12/02 20:42:07;;;;;;;6.27;3.07;;;;;;;-3.69;100.00;100366.81;10256344;28;20059;-85
2021/12/02 20:47:14;;;;;;;7.40;3.37;;;;;;;-4.80;100.00;100384.44;10240687;29;20171;-85
2021/12/02 20:52:14;;;;;;;3.83;2.50;;;;;;;-3.89;100.00;100313.44;10257335;28;20492;-84
2021/12/02 20:57:15;;;;;;;5.80;3.20;;;;;;;-3.36;100.00;100503.97;10241052;29;20046;-84
2021/12/02 21:02:18;;;;;;;9.07;3.17;;;;;;;-2.22;100.00;100617.66;10257783;28;20110;-88
2021/12/02 21:07:19;;;;;;;4.77;3.03;;;;;;;-3.19;100.00;100551.34;10244434;29;20121;-87
2021/12/02 21:12:20;;;;;;;4.90;3.10;;;;;;;-2.96;100.00;100551.44;10260810;29;20063;-87
2021/12/02 21:17:20;;;;;;;6.77;3.37;;;;;;;-2.41;100.00;100576.63;10243545;29;20125;-87
2021/12/02 21:22:21;;;;;;;6.93;3.27;;;;;;;-4.99;100.00;100212.94;10229064;29;20420;-87
2021/12/02 21:27:23;;;;;;;5.63;2.77;;;;;;;-2.21;100.00;100675.97;10258692;29;20481;-87
2021/12/02 21:32:24;;;;;;;5.20;2.43;;;;;;;-1.32;100.00;100757.44;10226305;29;20495;-87
2021/12/02 21:37:27;;;;;;;6.57;2.37;;;;;;;-4.07;100.00;100421.22;10209991;29;20043;-87
2021/12/02 21:42:27;;;;;;;6.30;2.13;;;;;;;-2.29;100.00;100704.66;10255651;28;20475;-87
2021/12/02 21:47:28;;;;;;;7.67;3.00;;;;;;;-3.22;100.00;100570.56;10242795;29;20055;-87
2021/12/02 21:52:28;;;;;;;24.23;5.67;;;;;;;-3.52;100.00;100476.06;10223949;29;20074;-88
2021/12/02 21:57:29;;;;;;;7.17;3.03;;;;;;;-1.60;100.00;100759.81;10240168;29;20042;-87
2021/12/02 22:02:29;;;;;;;7.50;3.47;;;;;;;-3.85;100.00;100583.72;10240142;29;20151;-87
2021/12/02 22:07:31;;;;;;;7.80;3.00;;;;;;;-2.12;100.00;100716.22;10239259;29;20488;-87
2021/12/02 22:12:31;;;;;;;7.50;3.40;;;;;;;-4.89;100.00;100401.56;10222102;28;20035;-87
2021/12/02 22:17:31;;;;;;;10.93;3.10;;;;;;;-3.35;100.00;100599.84;10254750;29;20484;-87
2021/12/02 22:22:32;;;;;;;6.47;3.20;;;;;;;-3.52;100.00;100593.63;10238373;29;20066;-87
2021/12/02 22:27:33;;;;;;;8.20;3.23;;;;;;;-2.02;100.00;100756.47;10237882;29;20066;-87
2021/12/02 22:32:34;;;;;;;12.80;3.50;;;;;;;-2.34;100.00;100701.63;10238627;29;20031;-87
2021/12/02 22:37:43;;;;;;;7.77;3.87;;;;;;;-2.43;100.00;100702.69;10618709;27;20412;-88
2021/12/02 22:42:48;;;;;;;8.60;3.77;;;;;;;-2.54;100.00;100684.16;10541853;28;20472;-89
2021/12/02 22:47:49;;;;;;;8.57;3.87;;;;;;;-2.34;100.00;100782.50;10523812;28;20028;-88
2021/12/02 22:52:50;;;;;;;9.33;3.97;;;;;;;-2.01;100.00;100778.91;10508006;28;20036;-88
2021/12/02 22:57:51;;;;;;;11.43;3.60;;;;;;;-2.37;100.00;100799.06;10507026;28;20023;-88
2021/12/02 23:02:51;;;;;;;8.97;3.37;;;;;;;-3.67;100.00;100572.78;10506691;28;20043;-88
2021/12/02 23:07:52;;;;;;;4.53;2.33;;;;;;;-2.71;100.00;100759.69;10500032;28;20094;-88
2021/12/02 23:12:53;;;;;;;4.63;2.33;;;;;;;-3.15;100.00;100698.09;10497376;28;20077;-88
2021/12/02 23:17:54;;;;;;;8.37;2.50;;;;;;;-4.10;100.00;100412.66;10464989;28;20032;-88
2021/12/02 23:22:54;;;;;;;6.27;2.20;;;;;;;-2.90;100.00;100568.78;10481663;28;20027;-88
2021/12/02 23:33:04;;;;;;;4.27;1.97;;;;;;;-2.51;100.00;100636.16;10497337;28;20083;-88
2021/12/02 23:38:04;;;;;;;4.80;2.30;;;;;;;-2.46;100.00;100676.06;10439084;28;20128;-88
2021/12/02 23:43:05;;;;;;;4.13;1.70;;;;;;;-3.05;100.00;100553.34;10438810;28;20123;-88
2021/12/02 23:48:06;;;;;;;5.30;1.50;;;;;;;-4.10;100.00;100369.63;10416698;28;20049;-88
2021/12/02 23:53:06;;;;;;;3.73;1.47;;;;;;;-3.37;100.00;100542.66;10411048;28;20024;-86
2021/12/02 23:58:07;;;;;;;3.83;1.53;;;;;;;-2.02;100.00;100729.50;10411135;28;20021;-86
